sensor_id;sensor_type;location;lat;lon;timestamp;P1;durP1;ratioP1;P2;durP2;ratioP2
62852;SDS011;49205;44.868;38.140;2022-12-29T00:00:17;7.72;;;4.42;;
62852;SDS011;49205;44.868;38.140;2022-12-29T00:02:46;8.80;;;4.15;;
62852;SDS011;49205;44.868;38.140;2022-12-29T00:05:15;7.87;;;4.35;;
62852;SDS011;49205;44.868;38.140;2022-12-29T00:07:43;6.72;;;4.25;;
62852;SDS011;49205;44.868;38.140;2022-12-29T00:10:12;8.03;;;4.70;;
62852;SDS011;49205;44.868;38.140;2022-12-29T00:12:41;8.10;;;4.20;;
62852;SDS011;49205;44.868;38.140;2022-12-29T00:15:13;7.58;;;3.85;;
62852;SDS011;49205;44.868;38.140;2022-12-29T00:18:00;5.37;;;4.62;;
62852;SDS011;49205;44.868;38.140;2022-12-29T00:20:29;8.65;;;4.28;;
62852;SDS011;49205;44.868;38.140;2022-12-29T00:23:15;6.90;;;4.17;;
62852;SDS011;49205;44.868;38.140;2022-12-29T00:26:08;6.22;;;4.33;;
62852;SDS011;49205;44.868;38.140;2022-12-29T00:28:52;7.10;;;4.20;;
62852;SDS011;49205;44.868;38.140;2022-12-29T00:31:39;6.72;;;4.05;;
62852;SDS011;49205;44.868;38.140;2022-12-29T00:34:25;7.92;;;4.30;;
62852;SDS011;49205;44.868;38.140;2022-12-29T00:37:12;5.92;;;4.17;;
62852;SDS011;49205;44.868;38.140;2022-12-29T00:39:41;5.92;;;4.22;;
62852;SDS011;49205;44.868;38.140;2022-12-29T00:42:27;8.48;;;4.12;;
62852;SDS011;49205;44.868;38.140;2022-12-29T00:45:15;7.83;;;3.85;;
62852;SDS011;49205;44.868;38.140;2022-12-29T00:47:43;12.15;;;5.20;;
62852;SDS011;49205;44.868;38.140;2022-12-29T00:50:12;7.42;;;4.42;;
62852;SDS011;49205;44.868;38.140;2022-12-29T00:52:41;8.90;;;4.53;;
62852;SDS011;49205;44.868;38.140;2022-12-29T00:55:09;8.38;;;4.70;;
62852;SDS011;49205;44.868;38.140;2022-12-29T00:57:38;7.20;;;4.80;;
62852;SDS011;49205;44.868;38.140;2022-12-29T01:00:07;8.58;;;4.95;;
62852;SDS011;49205;44.868;38.140;2022-12-29T01:02:36;7.97;;;4.83;;
62852;SDS011;49205;44.868;38.140;2022-12-29T01:05:04;9.73;;;5.00;;
62852;SDS011;49205;44.868;38.140;2022-12-29T01:07:33;11.33;;;5.05;;
62852;SDS011;49205;44.868;38.140;2022-12-29T01:10:02;9.78;;;5.00;;
62852;SDS011;49205;44.868;38.140;2022-12-29T01:12:42;8.28;;;4.78;;
62852;SDS011;49205;44.868;38.140;2022-12-29T01:15:13;14.38;;;6.40;;
62852;SDS011;49205;44.868;38.140;2022-12-29T01:17:42;7.08;;;5.25;;
62852;SDS011;49205;44.868;38.140;2022-12-29T01:20:11;9.10;;;5.22;;
62852;SDS011;49205;44.868;38.140;2022-12-29T01:22:39;11.40;;;4.87;;
62852;SDS011;49205;44.868;38.140;2022-12-29T01:25:09;11.35;;;5.75;;
62852;SDS011;49205;44.868;38.140;2022-12-29T01:27:38;7.30;;;5.42;;
62852;SDS011;49205;44.868;38.140;2022-12-29T01:30:07;11.53;;;5.92;;
62852;SDS011;49205;44.868;38.140;2022-12-29T01:32:36;8.28;;;5.05;;
62852;SDS011;49205;44.868;38.140;2022-12-29T01:35:05;9.13;;;5.83;;
62852;SDS011;49205;44.868;38.140;2022-12-29T01:37:35;7.33;;;4.78;;
62852;SDS011;49205;44.868;38.140;2022-12-29T01:40:03;7.58;;;4.67;;
62852;SDS011;49205;44.868;38.140;2022-12-29T01:42:32;12.05;;;5.25;;
62852;SDS011;49205;44.868;38.140;2022-12-29T01:45:03;8.80;;;4.87;;
62852;SDS011;49205;44.868;38.140;2022-12-29T01:50:04;8.98;;;5.30;;
62852;SDS011;49205;44.868;38.140;2022-12-29T01:52:32;7.30;;;4.42;;
62852;SDS011;49205;44.868;38.140;2022-12-29T01:55:02;9.43;;;5.05;;
62852;SDS011;49205;44.868;38.140;2022-12-29T01:57:32;8.33;;;5.60;;
62852;SDS011;49205;44.868;38.140;2022-12-29T02:00:03;8.73;;;5.37;;
62852;SDS011;49205;44.868;38.140;2022-12-29T02:02:32;9.63;;;5.58;;
62852;SDS011;49205;44.868;38.140;2022-12-29T02:05:05;15.95;;;5.12;;
62852;SDS011;49205;44.868;38.140;2022-12-29T02:07:34;11.05;;;5.08;;
62852;SDS011;49205;44.868;38.140;2022-12-29T02:10:03;9.83;;;5.72;;
62852;SDS011;49205;44.868;38.140;2022-12-29T02:12:32;10.55;;;5.75;;
62852;SDS011;49205;44.868;38.140;2022-12-29T02:15:00;9.95;;;5.60;;
62852;SDS011;49205;44.868;38.140;2022-12-29T02:20:29;6.95;;;4.92;;
62852;SDS011;49205;44.868;38.140;2022-12-29T02:30:58;10.40;;;5.00;;
62852;SDS011;49205;44.868;38.140;2022-12-29T02:36:06;18.75;;;5.67;;
62852;SDS011;49205;44.868;38.140;2022-12-29T02:39:21;11.65;;;5.75;;
62852;SDS011;49205;44.868;38.140;2022-12-29T02:41:03;10.88;;;5.60;;
62852;SDS011;49205;44.868;38.140;2022-12-29T02:46:35;8.13;;;5.40;;
62852;SDS011;49205;44.868;38.140;2022-12-29T02:49:05;13.05;;;5.33;;
62852;SDS011;49205;44.868;38.140;2022-12-29T02:51:35;13.08;;;4.87;;
62852;SDS011;49205;44.868;38.140;2022-12-29T02:54:03;7.42;;;4.53;;
62852;SDS011;49205;44.868;38.140;2022-12-29T02:56:50;12.80;;;4.97;;
62852;SDS011;49205;44.868;38.140;2022-12-29T02:59:19;13.30;;;4.62;;
62852;SDS011;49205;44.868;38.140;2022-12-29T03:07:31;7.58;;;3.90;;
62852;SDS011;49205;44.868;38.140;2022-12-29T03:09:57;8.00;;;4.60;;
62852;SDS011;49205;44.868;38.140;2022-12-29T03:12:25;7.87;;;4.22;;
62852;SDS011;49205;44.868;38.140;2022-12-29T03:15:05;5.97;;;3.65;;
62852;SDS011;49205;44.868;38.140;2022-12-29T03:17:53;7.62;;;4.50;;
62852;SDS011;49205;44.868;38.140;2022-12-29T03:20:23;7.85;;;4.62;;
62852;SDS011;49205;44.868;38.140;2022-12-29T03:22:53;15.63;;;5.87;;
62852;SDS011;49205;44.868;38.140;2022-12-29T03:25:24;11.22;;;5.25;;
62852;SDS011;49205;44.868;38.140;2022-12-29T03:27:54;9.63;;;4.85;;
62852;SDS011;49205;44.868;38.140;2022-12-29T03:30:23;9.00;;;4.65;;
62852;SDS011;49205;44.868;38.140;2022-12-29T03:32:53;14.23;;;7.00;;
62852;SDS011;49205;44.868;38.140;2022-12-29T03:35:25;11.97;;;5.65;;
62852;SDS011;49205;44.868;38.140;2022-12-29T03:40:30;10.88;;;5.22;;
62852;SDS011;49205;44.868;38.140;2022-12-29T03:43:01;13.50;;;5.67;;
62852;SDS011;49205;44.868;38.140;2022-12-29T03:45:30;19.55;;;6.53;;
62852;SDS011;49205;44.868;38.140;2022-12-29T03:47:59;9.40;;;5.03;;
62852;SDS011;49205;44.868;38.140;2022-12-29T03:50:28;8.08;;;4.95;;
62852;SDS011;49205;44.868;38.140;2022-12-29T03:52:57;13.00;;;4.87;;
62852;SDS011;49205;44.868;38.140;2022-12-29T03:55:27;11.57;;;6.00;;
62852;SDS011;49205;44.868;38.140;2022-12-29T03:57:57;10.68;;;5.40;;
62852;SDS011;49205;44.868;38.140;2022-12-29T04:00:27;10.60;;;5.67;;
62852;SDS011;49205;44.868;38.140;2022-12-29T04:02:56;17.37;;;6.58;;
62852;SDS011;49205;44.868;38.140;2022-12-29T04:05:25;13.70;;;6.78;;
62852;SDS011;49205;44.868;38.140;2022-12-29T04:07:55;8.95;;;5.45;;
62852;SDS011;49205;44.868;38.140;2022-12-29T04:10:24;12.43;;;4.72;;
62852;SDS011;49205;44.868;38.140;2022-12-29T04:12:54;11.65;;;5.70;;
62852;SDS011;49205;44.868;38.140;2022-12-29T04:15:23;16.57;;;6.12;;
62852;SDS011;49205;44.868;38.140;2022-12-29T04:17:53;10.55;;;5.50;;
62852;SDS011;49205;44.868;38.140;2022-12-29T04:20:22;14.20;;;6.65;;
62852;SDS011;49205;44.868;38.140;2022-12-29T04:23:09;16.15;;;7.70;;
62852;SDS011;49205;44.868;38.140;2022-12-29T04:25:38;27.90;;;11.83;;
62852;SDS011;49205;44.868;38.140;2022-12-29T04:28:08;32.28;;;13.78;;
62852;SDS011;49205;44.868;38.140;2022-12-29T04:30:57;33.83;;;13.43;;
62852;SDS011;49205;44.868;38.140;2022-12-29T04:33:30;37.60;;;15.00;;
62852;SDS011;49205;44.868;38.140;2022-12-29T04:35:59;19.40;;;9.70;;
62852;SDS011;49205;44.868;38.140;2022-12-29T04:38:28;18.50;;;8.43;;
62852;SDS011;49205;44.868;38.140;2022-12-29T04:40:58;19.17;;;9.03;;
62852;SDS011;49205;44.868;38.140;2022-12-29T04:43:27;17.40;;;7.70;;
62852;SDS011;49205;44.868;38.140;2022-12-29T04:46:14;23.67;;;8.85;;
62852;SDS011;49205;44.868;38.140;2022-12-29T04:48:53;24.63;;;7.20;;
62852;SDS011;49205;44.868;38.140;2022-12-29T04:51:29;24.18;;;8.55;;
62852;SDS011;49205;44.868;38.140;2022-12-29T04:53:58;25.43;;;8.33;;
62852;SDS011;49205;44.868;38.140;2022-12-29T04:56:28;23.27;;;7.95;;
62852;SDS011;49205;44.868;38.140;2022-12-29T04:58:58;14.47;;;7.15;;
62852;SDS011;49205;44.868;38.140;2022-12-29T05:01:27;20.20;;;6.92;;
62852;SDS011;49205;44.868;38.140;2022-12-29T05:03:56;11.35;;;6.28;;
62852;SDS011;49205;44.868;38.140;2022-12-29T05:06:24;20.15;;;11.08;;
62852;SDS011;49205;44.868;38.140;2022-12-29T05:08:53;25.37;;;6.95;;
62852;SDS011;49205;44.868;38.140;2022-12-29T05:11:22;19.02;;;8.00;;
62852;SDS011;49205;44.868;38.140;2022-12-29T05:13:52;11.88;;;7.20;;
62852;SDS011;49205;44.868;38.140;2022-12-29T05:16:21;22.45;;;9.90;;
62852;SDS011;49205;44.868;38.140;2022-12-29T05:18:53;18.85;;;8.65;;
62852;SDS011;49205;44.868;38.140;2022-12-29T05:21:21;18.30;;;7.92;;
62852;SDS011;49205;44.868;38.140;2022-12-29T05:23:50;16.32;;;9.35;;
62852;SDS011;49205;44.868;38.140;2022-12-29T05:26:19;21.25;;;10.88;;
62852;SDS011;49205;44.868;38.140;2022-12-29T05:28:49;18.42;;;7.45;;
62852;SDS011;49205;44.868;38.140;2022-12-29T05:31:19;24.37;;;7.30;;
62852;SDS011;49205;44.868;38.140;2022-12-29T05:33:48;11.05;;;4.70;;
62852;SDS011;49205;44.868;38.140;2022-12-29T05:36:17;7.70;;;4.17;;
62852;SDS011;49205;44.868;38.140;2022-12-29T05:38:47;8.75;;;5.03;;
62852;SDS011;49205;44.868;38.140;2022-12-29T05:41:17;8.03;;;4.03;;
62852;SDS011;49205;44.868;38.140;2022-12-29T05:43:52;11.35;;;4.95;;
62852;SDS011;49205;44.868;38.140;2022-12-29T05:46:39;7.78;;;4.70;;
62852;SDS011;49205;44.868;38.140;2022-12-29T05:49:12;17.90;;;7.05;;
62852;SDS011;49205;44.868;38.140;2022-12-29T05:51:54;22.87;;;6.80;;
62852;SDS011;49205;44.868;38.140;2022-12-29T05:54:22;10.25;;;4.28;;
62852;SDS011;49205;44.868;38.140;2022-12-29T05:56:52;10.90;;;5.90;;
62852;SDS011;49205;44.868;38.140;2022-12-29T05:59:21;9.38;;;5.40;;
62852;SDS011;49205;44.868;38.140;2022-12-29T06:01:51;13.15;;;5.08;;
62852;SDS011;49205;44.868;38.140;2022-12-29T06:04:20;6.87;;;4.00;;
62852;SDS011;49205;44.868;38.140;2022-12-29T06:06:49;9.85;;;4.50;;
62852;SDS011;49205;44.868;38.140;2022-12-29T06:09:19;8.65;;;4.22;;
62852;SDS011;49205;44.868;38.140;2022-12-29T06:11:48;7.78;;;3.37;;
62852;SDS011;49205;44.868;38.140;2022-12-29T06:14:16;6.35;;;4.30;;
62852;SDS011;49205;44.868;38.140;2022-12-29T06:16:45;6.45;;;3.95;;
62852;SDS011;49205;44.868;38.140;2022-12-29T06:19:13;9.38;;;4.42;;
62852;SDS011;49205;44.868;38.140;2022-12-29T06:21:42;7.62;;;3.75;;
62852;SDS011;49205;44.868;38.140;2022-12-29T06:24:11;8.88;;;4.50;;
62852;SDS011;49205;44.868;38.140;2022-12-29T06:26:39;11.05;;;4.35;;
62852;SDS011;49205;44.868;38.140;2022-12-29T06:29:09;9.73;;;4.50;;
62852;SDS011;49205;44.868;38.140;2022-12-29T06:31:37;8.40;;;4.08;;
62852;SDS011;49205;44.868;38.140;2022-12-29T06:34:06;13.25;;;4.67;;
62852;SDS011;49205;44.868;38.140;2022-12-29T06:36:35;10.75;;;4.22;;
62852;SDS011;49205;44.868;38.140;2022-12-29T06:39:05;6.85;;;3.60;;
62852;SDS011;49205;44.868;38.140;2022-12-29T06:41:34;7.05;;;3.60;;
62852;SDS011;49205;44.868;38.140;2022-12-29T06:44:16;6.87;;;3.72;;
62852;SDS011;49205;44.868;38.140;2022-12-29T06:46:52;6.10;;;3.35;;
62852;SDS011;49205;44.868;38.140;2022-12-29T06:49:21;7.65;;;3.22;;
62852;SDS011;49205;44.868;38.140;2022-12-29T06:51:49;7.72;;;4.12;;
62852;SDS011;49205;44.868;38.140;2022-12-29T06:54:18;10.13;;;3.92;;
62852;SDS011;49205;44.868;38.140;2022-12-29T06:56:47;9.15;;;4.33;;
62852;SDS011;49205;44.868;38.140;2022-12-29T06:59:16;11.65;;;3.92;;
62852;SDS011;49205;44.868;38.140;2022-12-29T07:01:45;12.18;;;4.60;;
62852;SDS011;49205;44.868;38.140;2022-12-29T07:04:13;9.18;;;5.17;;
62852;SDS011;49205;44.868;38.140;2022-12-29T07:06:42;10.05;;;5.58;;
62852;SDS011;49205;44.868;38.140;2022-12-29T07:09:11;9.03;;;4.85;;
62852;SDS011;49205;44.868;38.140;2022-12-29T07:11:39;8.35;;;4.33;;
62852;SDS011;49205;44.868;38.140;2022-12-29T07:14:08;11.55;;;4.58;;
62852;SDS011;49205;44.868;38.140;2022-12-29T07:16:38;9.25;;;5.00;;
62852;SDS011;49205;44.868;38.140;2022-12-29T07:19:07;6.42;;;4.28;;
62852;SDS011;49205;44.868;38.140;2022-12-29T07:21:35;9.00;;;4.62;;
62852;SDS011;49205;44.868;38.140;2022-12-29T07:24:04;7.05;;;4.62;;
62852;SDS011;49205;44.868;38.140;2022-12-29T07:26:32;9.30;;;4.85;;
62852;SDS011;49205;44.868;38.140;2022-12-29T07:29:02;11.80;;;4.83;;
62852;SDS011;49205;44.868;38.140;2022-12-29T07:31:31;5.22;;;4.00;;
62852;SDS011;49205;44.868;38.140;2022-12-29T07:33:59;5.45;;;3.83;;
62852;SDS011;49205;44.868;38.140;2022-12-29T07:36:28;5.50;;;3.35;;
62852;SDS011;49205;44.868;38.140;2022-12-29T07:38:57;8.30;;;3.87;;
62852;SDS011;49205;44.868;38.140;2022-12-29T07:41:25;12.10;;;5.97;;
62852;SDS011;49205;44.868;38.140;2022-12-29T07:43:54;8.75;;;2.92;;
62852;SDS011;49205;44.868;38.140;2022-12-29T07:46:41;4.92;;;3.10;;
62852;SDS011;49205;44.868;38.140;2022-12-29T07:49:10;5.83;;;2.85;;
62852;SDS011;49205;44.868;38.140;2022-12-29T07:51:38;5.30;;;3.58;;
62852;SDS011;49205;44.868;38.140;2022-12-29T07:54:08;5.28;;;2.62;;
62852;SDS011;49205;44.868;38.140;2022-12-29T07:56:36;7.15;;;3.17;;
62852;SDS011;49205;44.868;38.140;2022-12-29T07:59:05;11.15;;;6.40;;
62852;SDS011;49205;44.868;38.140;2022-12-29T08:01:34;12.75;;;8.23;;
62852;SDS011;49205;44.868;38.140;2022-12-29T08:04:03;5.83;;;4.10;;
62852;SDS011;49205;44.868;38.140;2022-12-29T08:06:31;4.97;;;2.72;;
62852;SDS011;49205;44.868;38.140;2022-12-29T08:09:00;6.87;;;5.37;;
62852;SDS011;49205;44.868;38.140;2022-12-29T08:11:29;4.75;;;3.22;;
62852;SDS011;49205;44.868;38.140;2022-12-29T08:13:58;4.33;;;3.02;;
62852;SDS011;49205;44.868;38.140;2022-12-29T08:16:26;4.35;;;2.27;;
62852;SDS011;49205;44.868;38.140;2022-12-29T08:18:56;9.58;;;2.85;;
62852;SDS011;49205;44.868;38.140;2022-12-29T08:21:24;6.03;;;2.77;;
62852;SDS011;49205;44.868;38.140;2022-12-29T08:23:53;6.35;;;3.25;;
62852;SDS011;49205;44.868;38.140;2022-12-29T08:26:22;7.20;;;3.47;;
62852;SDS011;49205;44.868;38.140;2022-12-29T08:28:54;4.97;;;3.33;;
62852;SDS011;49205;44.868;38.140;2022-12-29T08:31:23;6.42;;;3.02;;
62852;SDS011;49205;44.868;38.140;2022-12-29T08:33:51;11.63;;;2.95;;
62852;SDS011;49205;44.868;38.140;2022-12-29T08:36:20;6.50;;;2.90;;
62852;SDS011;49205;44.868;38.140;2022-12-29T08:38:49;9.10;;;3.37;;
62852;SDS011;49205;44.868;38.140;2022-12-29T08:41:17;7.05;;;3.60;;
62852;SDS011;49205;44.868;38.140;2022-12-29T08:43:46;4.75;;;3.10;;
62852;SDS011;49205;44.868;38.140;2022-12-29T08:46:15;13.13;;;3.80;;
62852;SDS011;49205;44.868;38.140;2022-12-29T08:48:44;8.80;;;3.42;;
62852;SDS011;49205;44.868;38.140;2022-12-29T08:51:12;10.82;;;4.42;;
62852;SDS011;49205;44.868;38.140;2022-12-29T08:53:41;5.22;;;2.10;;
62852;SDS011;49205;44.868;38.140;2022-12-29T08:56:09;3.02;;;2.72;;
62852;SDS011;49205;44.868;38.140;2022-12-29T08:58:43;4.80;;;1.82;;
62852;SDS011;49205;44.868;38.140;2022-12-29T09:01:12;4.03;;;2.08;;
62852;SDS011;49205;44.868;38.140;2022-12-29T09:03:41;2.45;;;1.80;;
62852;SDS011;49205;44.868;38.140;2022-12-29T09:06:09;2.80;;;2.12;;
62852;SDS011;49205;44.868;38.140;2022-12-29T09:08:38;7.33;;;2.58;;
62852;SDS011;49205;44.868;38.140;2022-12-29T09:11:14;10.60;;;2.37;;
62852;SDS011;49205;44.868;38.140;2022-12-29T09:13:42;3.47;;;1.90;;
62852;SDS011;49205;44.868;38.140;2022-12-29T09:16:11;6.62;;;2.20;;
62852;SDS011;49205;44.868;38.140;2022-12-29T09:18:40;6.55;;;1.92;;
62852;SDS011;49205;44.868;38.140;2022-12-29T09:21:09;15.68;;;2.72;;
62852;SDS011;49205;44.868;38.140;2022-12-29T09:23:38;4.10;;;2.72;;
62852;SDS011;49205;44.868;38.140;2022-12-29T09:26:06;4.62;;;2.40;;
62852;SDS011;49205;44.868;38.140;2022-12-29T09:28:35;2.37;;;2.17;;
62852;SDS011;49205;44.868;38.140;2022-12-29T09:31:04;5.90;;;2.33;;
62852;SDS011;49205;44.868;38.140;2022-12-29T09:33:32;3.58;;;2.22;;
62852;SDS011;49205;44.868;38.140;2022-12-29T09:36:01;7.58;;;2.00;;
62852;SDS011;49205;44.868;38.140;2022-12-29T09:38:30;5.30;;;2.40;;
62852;SDS011;49205;44.868;38.140;2022-12-29T09:41:05;8.93;;;5.10;;
62852;SDS011;49205;44.868;38.140;2022-12-29T09:46:18;3.60;;;2.12;;
62852;SDS011;49205;44.868;38.140;2022-12-29T09:48:44;6.65;;;2.42;;
62852;SDS011;49205;44.868;38.140;2022-12-29T09:51:15;11.12;;;2.37;;
62852;SDS011;49205;44.868;38.140;2022-12-29T09:53:44;2.98;;;1.82;;
62852;SDS011;49205;44.868;38.140;2022-12-29T09:56:15;3.25;;;2.05;;
62852;SDS011;49205;44.868;38.140;2022-12-29T10:01:36;5.10;;;1.90;;
62852;SDS011;49205;44.868;38.140;2022-12-29T10:04:00;7.97;;;2.85;;
62852;SDS011;49205;44.868;38.140;2022-12-29T10:06:46;4.87;;;2.00;;
62852;SDS011;49205;44.868;38.140;2022-12-29T10:14:58;2.80;;;1.52;;
62852;SDS011;49205;44.868;38.140;2022-12-29T10:17:46;3.90;;;2.40;;
62852;SDS011;49205;44.868;38.140;2022-12-29T10:20:16;3.27;;;2.30;;
62852;SDS011;49205;44.868;38.140;2022-12-29T10:25:37;8.03;;;3.40;;
62852;SDS011;49205;44.868;38.140;2022-12-29T10:28:39;7.12;;;2.12;;
62852;SDS011;49205;44.868;38.140;2022-12-29T10:30:40;10.63;;;2.95;;
62852;SDS011;49205;44.868;38.140;2022-12-29T10:33:10;6.50;;;2.08;;
62852;SDS011;49205;44.868;38.140;2022-12-29T10:35:39;4.87;;;2.60;;
62852;SDS011;49205;44.868;38.140;2022-12-29T10:38:33;12.28;;;1.87;;
62852;SDS011;49205;44.868;38.140;2022-12-29T10:40:43;4.55;;;3.08;;
62852;SDS011;49205;44.868;38.140;2022-12-29T10:43:26;6.15;;;2.27;;
62852;SDS011;49205;44.868;38.140;2022-12-29T10:45:55;4.22;;;1.75;;
62852;SDS011;49205;44.868;38.140;2022-12-29T10:48:28;7.08;;;3.02;;
62852;SDS011;49205;44.868;38.140;2022-12-29T10:50:57;7.87;;;2.33;;
62852;SDS011;49205;44.868;38.140;2022-12-29T10:53:31;4.17;;;1.95;;
62852;SDS011;49205;44.868;38.140;2022-12-29T10:55:56;7.62;;;2.15;;
62852;SDS011;49205;44.868;38.140;2022-12-29T10:58:25;5.87;;;2.20;;
62852;SDS011;49205;44.868;38.140;2022-12-29T11:00:54;3.77;;;1.90;;
62852;SDS011;49205;44.868;38.140;2022-12-29T11:03:34;2.90;;;1.75;;
62852;SDS011;49205;44.868;38.140;2022-12-29T11:08:38;6.37;;;2.20;;
62852;SDS011;49205;44.868;38.140;2022-12-29T11:11:09;6.12;;;1.85;;
62852;SDS011;49205;44.868;38.140;2022-12-29T11:13:47;7.75;;;2.15;;
62852;SDS011;49205;44.868;38.140;2022-12-29T11:16:37;11.50;;;3.02;;
62852;SDS011;49205;44.868;38.140;2022-12-29T11:18:46;6.00;;;2.40;;
62852;SDS011;49205;44.868;38.140;2022-12-29T11:26:28;6.53;;;2.50;;
62852;SDS011;49205;44.868;38.140;2022-12-29T11:31:49;11.88;;;3.02;;
62852;SDS011;49205;44.868;38.140;2022-12-29T11:34:30;7.50;;;3.05;;
62852;SDS011;49205;44.868;38.140;2022-12-29T11:36:54;6.08;;;1.65;;
62852;SDS011;49205;44.868;38.140;2022-12-29T11:39:32;9.53;;;3.05;;
62852;SDS011;49205;44.868;38.140;2022-12-29T11:41:52;5.53;;;1.92;;
62852;SDS011;49205;44.868;38.140;2022-12-29T11:44:21;1.62;;;1.42;;
62852;SDS011;49205;44.868;38.140;2022-12-29T11:46:51;10.95;;;2.47;;
62852;SDS011;49205;44.868;38.140;2022-12-29T11:49:20;3.42;;;1.90;;
62852;SDS011;49205;44.868;38.140;2022-12-29T11:51:50;1.77;;;1.67;;
62852;SDS011;49205;44.868;38.140;2022-12-29T11:54:20;4.30;;;2.05;;
62852;SDS011;49205;44.868;38.140;2022-12-29T11:56:49;4.62;;;2.65;;
62852;SDS011;49205;44.868;38.140;2022-12-29T11:59:34;3.72;;;2.08;;
62852;SDS011;49205;44.868;38.140;2022-12-29T12:01:55;5.80;;;1.70;;
62852;SDS011;49205;44.868;38.140;2022-12-29T12:04:30;4.47;;;2.20;;
62852;SDS011;49205;44.868;38.140;2022-12-29T12:09:43;9.10;;;2.58;;
62852;SDS011;49205;44.868;38.140;2022-12-29T12:12:23;3.05;;;1.67;;
62852;SDS011;49205;44.868;38.140;2022-12-29T12:14:55;5.40;;;2.00;;
62852;SDS011;49205;44.868;38.140;2022-12-29T12:17:41;15.48;;;5.35;;
62852;SDS011;49205;44.868;38.140;2022-12-29T12:22:45;3.95;;;2.05;;
62852;SDS011;49205;44.868;38.140;2022-12-29T12:25:16;4.30;;;1.90;;
62852;SDS011;49205;44.868;38.140;2022-12-29T12:30:19;4.60;;;1.82;;
62852;SDS011;49205;44.868;38.140;2022-12-29T12:35:41;7.58;;;2.20;;
62852;SDS011;49205;44.868;38.140;2022-12-29T12:41:24;5.05;;;2.25;;
62852;SDS011;49205;44.868;38.140;2022-12-29T12:43:27;2.85;;;1.87;;
62852;SDS011;49205;44.868;38.140;2022-12-29T12:51:13;3.50;;;1.75;;
62852;SDS011;49205;44.868;38.140;2022-12-29T12:59:06;2.40;;;1.55;;
62852;SDS011;49205;44.868;38.140;2022-12-29T13:01:52;7.58;;;2.83;;
62852;SDS011;49205;44.868;38.140;2022-12-29T13:04:27;15.32;;;3.37;;
62852;SDS011;49205;44.868;38.140;2022-12-29T13:12:06;10.93;;;2.85;;
62852;SDS011;49205;44.868;38.140;2022-12-29T13:14:41;13.35;;;2.77;;
62852;SDS011;49205;44.868;38.140;2022-12-29T13:24:45;4.97;;;2.02;;
62852;SDS011;49205;44.868;38.140;2022-12-29T13:29:53;4.65;;;2.08;;
62852;SDS011;49205;44.868;38.140;2022-12-29T13:37:42;4.12;;;1.90;;
62852;SDS011;49205;44.868;38.140;2022-12-29T13:40:13;7.92;;;2.10;;
62852;SDS011;49205;44.868;38.140;2022-12-29T13:42:41;9.20;;;1.95;;
62852;SDS011;49205;44.868;38.140;2022-12-29T13:45:10;6.70;;;2.17;;
62852;SDS011;49205;44.868;38.140;2022-12-29T13:48:30;3.40;;;2.25;;
62852;SDS011;49205;44.868;38.140;2022-12-29T13:50:14;13.68;;;3.45;;
62852;SDS011;49205;44.868;38.140;2022-12-29T13:53:03;5.10;;;1.95;;
62852;SDS011;49205;44.868;38.140;2022-12-29T14:00:29;5.22;;;2.47;;
62852;SDS011;49205;44.868;38.140;2022-12-29T14:03:20;5.97;;;2.20;;
62852;SDS011;49205;44.868;38.140;2022-12-29T14:05:31;6.05;;;2.30;;
62852;SDS011;49205;44.868;38.140;2022-12-29T14:08:05;5.15;;;2.10;;
62852;SDS011;49205;44.868;38.140;2022-12-29T14:13:16;4.33;;;2.77;;
62852;SDS011;49205;44.868;38.140;2022-12-29T14:15:47;4.37;;;2.60;;
62852;SDS011;49205;44.868;38.140;2022-12-29T14:18:16;6.05;;;2.47;;
62852;SDS011;49205;44.868;38.140;2022-12-29T14:21:03;10.25;;;3.95;;
62852;SDS011;49205;44.868;38.140;2022-12-29T14:23:46;6.35;;;3.05;;
62852;SDS011;49205;44.868;38.140;2022-12-29T14:26:16;6.87;;;2.92;;
62852;SDS011;49205;44.868;38.140;2022-12-29T14:28:46;5.35;;;2.83;;
62852;SDS011;49205;44.868;38.140;2022-12-29T14:36:42;4.60;;;2.50;;
62852;SDS011;49205;44.868;38.140;2022-12-29T14:42:06;5.50;;;3.37;;
62852;SDS011;49205;44.868;38.140;2022-12-29T14:44:44;8.18;;;4.33;;
62852;SDS011;49205;44.868;38.140;2022-12-29T14:47:05;14.50;;;4.70;;
62852;SDS011;49205;44.868;38.140;2022-12-29T14:49:43;10.78;;;4.87;;
62852;SDS011;49205;44.868;38.140;2022-12-29T14:52:04;15.70;;;7.37;;
62852;SDS011;49205;44.868;38.140;2022-12-29T14:57:05;29.85;;;6.83;;
62852;SDS011;49205;44.868;38.140;2022-12-29T14:59:33;21.02;;;6.20;;
62852;SDS011;49205;44.868;38.140;2022-12-29T15:02:03;19.12;;;8.00;;
62852;SDS011;49205;44.868;38.140;2022-12-29T15:04:32;32.93;;;9.50;;
62852;SDS011;49205;44.868;38.140;2022-12-29T15:07:02;12.47;;;6.50;;
62852;SDS011;49205;44.868;38.140;2022-12-29T15:09:38;24.80;;;7.72;;
62852;SDS011;49205;44.868;38.140;2022-12-29T15:14:56;17.77;;;5.55;;
62852;SDS011;49205;44.868;38.140;2022-12-29T15:17:28;16.65;;;6.08;;
62852;SDS011;49205;44.868;38.140;2022-12-29T15:19:58;19.50;;;6.12;;
62852;SDS011;49205;44.868;38.140;2022-12-29T15:22:27;11.80;;;5.35;;
62852;SDS011;49205;44.868;38.140;2022-12-29T15:24:56;17.55;;;5.58;;
62852;SDS011;49205;44.868;38.140;2022-12-29T15:27:25;16.80;;;5.45;;
62852;SDS011;49205;44.868;38.140;2022-12-29T15:29:58;23.98;;;9.15;;
62852;SDS011;49205;44.868;38.140;2022-12-29T15:32:29;13.88;;;6.45;;
62852;SDS011;49205;44.868;38.140;2022-12-29T15:34:58;14.85;;;5.90;;
62852;SDS011;49205;44.868;38.140;2022-12-29T15:37:32;22.98;;;7.00;;
62852;SDS011;49205;44.868;38.140;2022-12-29T15:39:58;21.80;;;7.25;;
62852;SDS011;49205;44.868;38.140;2022-12-29T15:44:56;46.60;;;12.00;;
62852;SDS011;49205;44.868;38.140;2022-12-29T15:47:25;32.78;;;11.40;;
62852;SDS011;49205;44.868;38.140;2022-12-29T15:50:02;39.33;;;12.37;;
62852;SDS011;49205;44.868;38.140;2022-12-29T15:52:26;30.15;;;13.00;;
62852;SDS011;49205;44.868;38.140;2022-12-29T15:54:56;40.85;;;11.83;;
62852;SDS011;49205;44.868;38.140;2022-12-29T15:57:26;33.53;;;13.70;;
62852;SDS011;49205;44.868;38.140;2022-12-29T15:59:55;22.17;;;7.78;;
62852;SDS011;49205;44.868;38.140;2022-12-29T16:02:24;18.00;;;8.25;;
62852;SDS011;49205;44.868;38.140;2022-12-29T16:04:53;25.68;;;9.43;;
62852;SDS011;49205;44.868;38.140;2022-12-29T16:07:26;19.80;;;9.15;;
62852;SDS011;49205;44.868;38.140;2022-12-29T16:09:58;24.95;;;9.85;;
62852;SDS011;49205;44.868;38.140;2022-12-29T16:12:36;19.27;;;8.53;;
62852;SDS011;49205;44.868;38.140;2022-12-29T16:15:06;29.98;;;12.07;;
62852;SDS011;49205;44.868;38.140;2022-12-29T16:17:45;22.67;;;9.00;;
62852;SDS011;49205;44.868;38.140;2022-12-29T16:20:17;23.10;;;9.08;;
62852;SDS011;49205;44.868;38.140;2022-12-29T16:22:55;21.55;;;10.30;;
62852;SDS011;49205;44.868;38.140;2022-12-29T16:25:34;21.42;;;9.13;;
62852;SDS011;49205;44.868;38.140;2022-12-29T16:28:01;14.30;;;8.40;;
62852;SDS011;49205;44.868;38.140;2022-12-29T16:30:32;34.60;;;10.55;;
62852;SDS011;49205;44.868;38.140;2022-12-29T16:33:02;18.80;;;10.00;;
62852;SDS011;49205;44.868;38.140;2022-12-29T16:38:20;16.45;;;5.83;;
62852;SDS011;49205;44.868;38.140;2022-12-29T16:40:49;11.40;;;6.08;;
62852;SDS011;49205;44.868;38.140;2022-12-29T16:43:25;9.93;;;4.30;;
62852;SDS011;49205;44.868;38.140;2022-12-29T16:48:24;10.10;;;4.75;;
62852;SDS011;49205;44.868;38.140;2022-12-29T16:51:00;12.20;;;3.83;;
62852;SDS011;49205;44.868;38.140;2022-12-29T16:53:26;11.00;;;5.00;;
62852;SDS011;49205;44.868;38.140;2022-12-29T16:55:56;15.03;;;6.60;;